Historique des stations

Station météo de Digny

Altitude de la station : 230 m







Données météorologiques pour le 18/08/2022
Date
Heure
Températures Humidité Point de rosée Vitesse
du vent
Direction Rafales Windchill Pression Pluviométrie
Cumul
Date
Heure
Températures Humidité Point de rosée Vitesse
du vent
Direction Rafales Windchill Pression Pluviométrie
Cumul
18/08/2022 23:4716.6 °C88 %14.4 °C8 km/h--16.7 1016 hPa-
18/08/2022 23:4516.6 °C87 %14.4 °C10 km/hONO26 km/h16.7 1016 hPa-
18/08/2022 23:3316.9 °C87 %15.0 °C10 km/h--16.7 1016 hPa-
18/08/2022 23:3016.9 °C87 %15.0 °C10 km/hONO26 km/h17.2 1016 hPa-
18/08/2022 23:1817.1 °C87 %15.0 °C10 km/h--17.2 1016 hPa-
18/08/2022 23:1517.1 °C86 %15.0 °C10 km/hONO26 km/h17.2 1016 hPa-
18/08/2022 23:0217.3 °C86 %15.0 °C10 km/h--17.2 1016 hPa-
18/08/2022 23:0017.4 °C85 %15.0 °C10 km/hONO26 km/h17.2 1016 hPa-
18/08/2022 22:4817.6 °C85 %15.0 °C10 km/h--17.8 1015 hPa-
18/08/2022 22:4517.6 °C85 %15.0 °C10 km/hO26 km/h17.8 1015 hPa-
18/08/2022 22:3217.8 °C84 %15.0 °C8 km/h--17.8 1015 hPa-
18/08/2022 22:3017.8 °C83 %15.0 °C10 km/hO26 km/h17.8 1015 hPa-
18/08/2022 22:1718.1 °C82 %15.0 °C6 km/h--18.3 1015 hPa-
18/08/2022 22:1518.1 °C82 %15.0 °C6 km/hONO26 km/h18.3 1015 hPa-
18/08/2022 22:0218.5 °C79 %15.0 °C8 km/h--18.3 1015 hPa-
18/08/2022 22:0018.6 °C79 %15.0 °C6 km/hONO26 km/h18.9 1015 hPa-
18/08/2022 21:4719.3 °C77 %15.0 °C8 km/h--19.4 1015 hPa-
18/08/2022 21:4519.4 °C77 %15.0 °C8 km/hONO26 km/h19.4 1015 hPa-
18/08/2022 21:3319.8 °C75 %15.6 °C11 km/h--19.4 1015 hPa-
18/08/2022 21:3019.9 °C75 %15.6 °C14 km/hONO26 km/h18.9 1015 hPa-
18/08/2022 21:1820.4 °C73 %15.6 °C14 km/h--19.4 1015 hPa-
18/08/2022 21:1520.6 °C72 %15.6 °C13 km/hO26 km/h20.0 1015 hPa-
18/08/2022 21:0321.2 °C69 %15.0 °C14 km/h--20.0 1015 hPa-
18/08/2022 21:0021.4 °C69 %15.6 °C26 km/hONO26 km/h19.4 1015 hPa-
18/08/2022 20:4822.2 °C67 %15.6 °C13 km/h--21.7 1014 hPa-
18/08/2022 20:4522.3 °C66 %15.6 °C19 km/hONO26 km/h21.1 1014 hPa-
18/08/2022 20:3322.8 °C66 %16.1 °C14 km/h--21.7 1014 hPa-
18/08/2022 20:3022.8 °C66 %16.1 °C11 km/hONO24 km/h22.2 1014 hPa-
18/08/2022 20:1823.3 °C65 %16.1 °C13 km/h--22.8 1014 hPa-
18/08/2022 20:1523.4 °C65 %16.7 °C11 km/hONO24 km/h22.8 1014 hPa-
18/08/2022 20:0323.6 °C64 %16.1 °C8 km/h--23.9 1014 hPa-
18/08/2022 20:0023.7 °C63 %16.1 °C10 km/hONO24 km/h23.9 1014 hPa-
18/08/2022 19:4824.0 °C63 %16.7 °C13 km/h--23.3 1014 hPa-
18/08/2022 19:4524.1 °C63 %16.7 °C16 km/hNO24 km/h22.8 1014 hPa-
18/08/2022 19:3324.5 °C61 %16.7 °C16 km/h--23.3 1014 hPa-
18/08/2022 19:3024.8 °C60 %16.7 °C16 km/hONO24 km/h23.9 1014 hPa-
18/08/2022 19:1825.9 °C57 %16.7 °C11 km/h--25.6 1014 hPa-
18/08/2022 19:1526.3 °C56 %16.7 °C18 km/hONO24 km/h25.0 1014 hPa-
18/08/2022 19:0326.2 °C56 %16.7 °C16 km/h--25.0 1014 hPa-
18/08/2022 19:0026.1 °C56 %16.7 °C14 km/hO24 km/h25.0 1014 hPa-
18/08/2022 18:4826.4 °C55 %16.7 °C16 km/h--25.6 1014 hPa-
18/08/2022 18:4526.5 °C54 %16.7 °C14 km/hO24 km/h25.6 1014 hPa-
18/08/2022 18:3426.4 °C53 %16.1 °C18 km/h--25.6 1014 hPa-
18/08/2022 18:3026.3 °C54 %16.1 °C16 km/hONO24 km/h25.0 1014 hPa-
18/08/2022 18:1826.4 °C52 %15.6 °C8 km/h--26.7 1014 hPa-
18/08/2022 18:1527.0 °C51 %16.1 °C11 km/hONO24 km/h27.2 1014 hPa-
18/08/2022 18:0427.5 °C49 %15.6 °C10 km/h--27.8 1014 hPa-
18/08/2022 18:0027.9 °C49 %16.1 °C13 km/hONO24 km/h27.8 1014 hPa-
18/08/2022 17:4927.2 °C51 %16.1 °C19 km/h--26.1 1014 hPa-
18/08/2022 17:4527.4 °C51 %16.1 °C6 km/hONO24 km/h27.2 1014 hPa-
18/08/2022 17:3428.2 °C48 %16.1 °C11 km/h--28.3 1014 hPa-
18/08/2022 17:3028.7 °C48 %16.7 °C18 km/hONO24 km/h28.3 1014 hPa-
18/08/2022 17:1928.5 °C49 %16.7 °C13 km/h--28.3 1014 hPa-
18/08/2022 17:1528.4 °C49 %16.7 °C16 km/hO24 km/h27.8 1014 hPa-
18/08/2022 17:0427.5 °C52 %16.7 °C19 km/h--26.7 1014 hPa-
18/08/2022 17:0027.3 °C52 %16.7 °C6 km/hO24 km/h27.2 1014 hPa-
18/08/2022 16:4927.7 °C51 %16.7 °C16 km/h--26.7 1014 hPa-
18/08/2022 16:4527.6 °C52 %16.7 °C14 km/hONO24 km/h27.8 1014 hPa-
18/08/2022 16:3427.5 °C50 %16.1 °C10 km/h--27.8 1014 hPa-
18/08/2022 16:3027.7 °C51 %16.7 °C14 km/hOSO24 km/h27.8 1014 hPa-
18/08/2022 16:1928.0 °C49 %16.1 °C10 km/h--27.8 1014 hPa-
18/08/2022 16:1528.4 °C49 %16.7 °C3 km/hSO24 km/h28.3 1014 hPa-
18/08/2022 16:0428.5 °C49 %16.7 °C14 km/h--28.3 1014 hPa-
18/08/2022 16:0028.3 °C50 %16.7 °C16 km/hO24 km/h27.8 1014 hPa-
18/08/2022 15:5027.3 °C52 %16.7 °C11 km/h--27.2 1014 hPa-
18/08/2022 15:4527.3 °C52 %16.7 °C3 km/hSO24 km/h27.2 1014 hPa-
18/08/2022 15:3527.2 °C51 %16.1 °C6 km/h--27.2 1014 hPa-
18/08/2022 15:3026.6 °C54 %16.7 °C13 km/hOSO24 km/h26.1 1014 hPa-
18/08/2022 15:2027.5 °C52 %16.7 °C14 km/h--27.8 1014 hPa-
18/08/2022 15:1527.7 °C51 %16.7 °C10 km/hOSO24 km/h27.8 1014 hPa-
18/08/2022 15:0527.8 °C51 %16.7 °C6 km/h--27.8 1014 hPa-
18/08/2022 15:0027.5 °C52 %16.7 °C11 km/hO24 km/h27.8 1014 hPa-
18/08/2022 14:4926.8 °C54 %16.7 °C6 km/h--26.7 1014 hPa-
18/08/2022 14:4526.6 °C54 %16.7 °C16 km/hOSO24 km/h25.6 1014 hPa-
18/08/2022 14:3527.0 °C53 %16.7 °C6 km/h--27.2 1014 hPa-
18/08/2022 14:3026.9 °C56 %17.2 °C8 km/hO24 km/h26.7 1014 hPa-
18/08/2022 14:1926.8 °C54 %16.7 °C6 km/h--26.7 1014 hPa-
18/08/2022 14:1526.8 °C54 %16.7 °C6 km/hO24 km/h26.7 1014 hPa-
18/08/2022 14:0426.3 °C58 %17.2 °C10 km/h--26.1 1014 hPa-
18/08/2022 14:0026.1 °C60 %17.8 °C6 km/hSSO23 km/h26.1 1014 hPa-
18/08/2022 13:5025.4 °C62 %17.8 °C3 km/h--25.6 1014 hPa-
18/08/2022 13:4524.9 °C64 %17.8 °C5 km/hOSO21 km/h25.0 1014 hPa-
18/08/2022 13:3525.3 °C60 %16.7 °C6 km/h--25.6 1014 hPa-
18/08/2022 13:3125.9 °C60 %17.2 °C8 km/hONO21 km/h26.1 1014 hPa-
18/08/2022 13:2025.8 °C62 %17.8 °C13 km/h--25.0 1014 hPa-
18/08/2022 13:1525.9 °C62 %18.3 °C16 km/hNO21 km/h25.0 1014 hPa-
18/08/2022 13:0425.4 °C62 %17.8 °C16 km/h--24.4 1014 hPa-
18/08/2022 13:0125.1 °C65 %17.8 °C10 km/hOSO21 km/h25.0 1014 hPa-
18/08/2022 12:5024.7 °C67 %18.3 °C6 km/h--25.0 1014 hPa-
18/08/2022 12:4624.3 °C66 %17.8 °C14 km/hO21 km/h23.3 1014 hPa-
18/08/2022 12:3524.4 °C66 %17.8 °C11 km/h--23.9 1014 hPa-
18/08/2022 12:3125.0 °C67 %18.3 °C13 km/hNO21 km/h24.4 1014 hPa-
18/08/2022 12:2024.6 °C69 %18.3 °C8 km/h--24.4 1014 hPa-
18/08/2022 12:1624.4 °C68 %18.3 °C10 km/hO21 km/h24.4 1014 hPa-
18/08/2022 12:0524.7 °C68 %18.3 °C11 km/h--24.4 1014 hPa-
18/08/2022 12:0124.8 °C68 %18.3 °C8 km/hSSO21 km/h25.0 1014 hPa-
18/08/2022 11:5024.1 °C71 %18.3 °C13 km/h--23.3 1014 hPa-
18/08/2022 11:4623.8 °C71 %18.3 °C11 km/hO21 km/h23.3 1014 hPa-
18/08/2022 11:3523.6 °C73 %18.3 °C8 km/h--23.9 1014 hPa-
18/08/2022 11:3123.6 °C73 %18.3 °C11 km/hO21 km/h23.3 1014 hPa-
18/08/2022 11:1922.8 °C76 %18.3 °C18 km/h--21.7 1014 hPa-
18/08/2022 11:1522.7 °C77 %18.3 °C14 km/hO21 km/h21.7 1014 hPa-
18/08/2022 11:0423.4 °C73 %18.3 °C16 km/h--22.2 1014 hPa-
18/08/2022 11:0023.4 °C73 %18.3 °C13 km/hO19 km/h22.8 1014 hPa-
18/08/2022 10:4922.9 °C76 %18.3 °C11 km/h--22.2 1014 hPa-
18/08/2022 10:4522.7 °C76 %18.3 °C14 km/hO16 km/h21.7 1014 hPa-
18/08/2022 10:3421.9 °C79 %18.3 °C8 km/h--22.2 1014 hPa-
18/08/2022 10:3021.6 °C81 %18.3 °C13 km/hO16 km/h21.1 1014 hPa-
18/08/2022 10:1921.2 °C81 %17.8 °C11 km/h--20.6 1014 hPa-
18/08/2022 10:1520.9 °C82 %17.8 °C10 km/hONO16 km/h21.1 1014 hPa-
18/08/2022 10:0820.2 °C87 %17.8 °C11 km/h--19.4 1014 hPa-
18/08/2022 10:0119.2 °C92 %17.8 °C10 km/hOSO14 km/h19.4 1014 hPa-
18/08/2022 09:4917.5 °C96 %16.7 °C8 km/h--17.8 1014 hPa-
18/08/2022 09:4517.1 °C95 %16.1 °C5 km/hONO14 km/h17.2 1014 hPa-
18/08/2022 09:3416.4 °C96 %16.1 °C6 km/h--16.7 1014 hPa-
18/08/2022 09:3016.3 °C97 %16.1 °C6 km/hONO14 km/h16.1 1014 hPa-
18/08/2022 09:1915.8 °C98 %15.6 °C8 km/h--16.1 1014 hPa-
18/08/2022 09:1515.6 °C98 %15.6 °C8 km/hONO14 km/h15.6 1014 hPa-
18/08/2022 09:0415.1 °C97 %14.4 °C10 km/h--14.4 1014 hPa-
18/08/2022 09:0015.0 °C97 %14.4 °C8 km/hNO14 km/h15.0 1013 hPa-
18/08/2022 08:4914.8 °C97 %14.4 °C8 km/h--15.0 1013 hPa-
18/08/2022 08:4514.8 °C97 %14.4 °C5 km/hNO14 km/h15.0 1013 hPa-
18/08/2022 08:3414.6 °C98 %14.4 °C11 km/h--13.3 1013 hPa-
18/08/2022 08:3114.6 °C98 %14.4 °C10 km/hONO14 km/h13.9 1013 hPa-
18/08/2022 08:1914.4 °C98 %14.4 °C10 km/h--13.9 1013 hPa-
18/08/2022 08:1514.4 °C98 %13.9 °C11 km/hONO13 km/h13.3 1013 hPa-
18/08/2022 08:0414.4 °C99 %14.4 °C6 km/h--14.4 1013 hPa-
18/08/2022 08:0014.0 °C99 %13.9 °C5 km/hO11 km/h13.9 1013 hPa-
18/08/2022 07:4913.3 °C98 %13.3 °C10 km/h--12.8 1013 hPa-
18/08/2022 07:4513.3 °C97 %12.8 °C6 km/hO11 km/h13.3 1013 hPa-
18/08/2022 07:3413.4 °C98 %13.3 °C5 km/h--13.3 1013 hPa-
18/08/2022 07:3013.4 °C98 %13.3 °C-SO11 km/h13.3 1013 hPa-
18/08/2022 07:1912.9 °C98 %12.8 °C5 km/h--12.8 1013 hPa-
18/08/2022 07:1612.8 °C98 %12.8 °C3 km/hSO11 km/h12.8 1013 hPa-
18/08/2022 07:0412.0 °C98 %11.7 °C5 km/h--12.2 1013 hPa-
18/08/2022 07:0111.8 °C98 %11.7 °C8 km/hOSO11 km/h11.1 1013 hPa-
18/08/2022 06:4911.3 °C96 %10.6 °C6 km/h--11.1 1013 hPa-
18/08/2022 06:4611.4 °C96 %10.6 °C6 km/hO10 km/h11.7 1013 hPa-
18/08/2022 06:3311.6 °C96 %11.1 °C8 km/h--11.1 1013 hPa-
18/08/2022 06:3111.7 °C96 %11.1 °C8 km/hONO10 km/h11.1 1013 hPa-
18/08/2022 06:1811.8 °C96 %11.1 °C5 km/h--11.7 1013 hPa-
18/08/2022 06:1612.0 °C96 %11.7 °C6 km/hO10 km/h12.2 1013 hPa-
18/08/2022 06:0412.2 °C97 %11.7 °C3 km/h--12.2 1013 hPa-
18/08/2022 06:0112.1 °C97 %11.7 °C5 km/hNO10 km/h12.2 1013 hPa-
18/08/2022 05:4912.0 °C96 %11.7 °C6 km/h--12.2 1013 hPa-
18/08/2022 05:4612.1 °C96 %11.7 °C5 km/hO10 km/h12.2 1013 hPa-
18/08/2022 05:3412.2 °C97 %11.7 °C6 km/h--12.2 1012 hPa-
18/08/2022 05:3112.2 °C97 %11.7 °C5 km/hOSO10 km/h12.2 1012 hPa-
18/08/2022 05:1912.2 °C97 %11.7 °C5 km/h--12.2 1012 hPa-
18/08/2022 05:1612.1 °C97 %11.7 °C5 km/hOSO10 km/h12.2 1013 hPa-
18/08/2022 05:0411.9 °C96 %11.1 °C6 km/h--11.7 1013 hPa-
18/08/2022 05:0111.9 °C96 %11.1 °C6 km/hOSO10 km/h11.7 1013 hPa-
18/08/2022 04:4912.2 °C96 %11.7 °C5 km/h--12.2 1013 hPa-
18/08/2022 04:4612.2 °C96 %11.7 °C5 km/hO10 km/h12.2 1013 hPa-
18/08/2022 04:3312.3 °C96 %11.7 °C6 km/h--12.2 1013 hPa-
18/08/2022 04:3012.2 °C96 %11.7 °C5 km/hO10 km/h12.2 1013 hPa-
18/08/2022 04:1812.2 °C96 %11.7 °C6 km/h--12.2 1013 hPa-
18/08/2022 04:1512.1 °C96 %11.7 °C8 km/hO10 km/h11.7 1013 hPa-
18/08/2022 04:0312.2 °C96 %11.7 °C5 km/h--12.2 1013 hPa-
18/08/2022 04:0012.2 °C96 %11.7 °C3 km/hOSO10 km/h12.2 1013 hPa-
18/08/2022 03:4812.1 °C95 %11.1 °C5 km/h--12.2 1013 hPa-
18/08/2022 03:4512.1 °C95 %11.1 °C6 km/hO10 km/h12.2 1013 hPa-
18/08/2022 03:3312.3 °C94 %11.7 °C6 km/h--12.2 1013 hPa-
18/08/2022 03:3012.4 °C94 %11.7 °C5 km/hONO10 km/h12.2 1013 hPa-
18/08/2022 03:1812.9 °C94 %12.2 °C5 km/h--12.8 1013 hPa-
18/08/2022 03:1513.2 °C95 %12.2 °C6 km/hONO10 km/h13.3 1013 hPa-
18/08/2022 03:0312.7 °C94 %11.7 °C6 km/h--12.8 1013 hPa-
18/08/2022 03:0012.8 °C93 %11.7 °C6 km/hONO10 km/h12.8 1012 hPa-
18/08/2022 02:4813.2 °C93 %12.2 °C6 km/h--13.3 1013 hPa-
18/08/2022 02:4513.2 °C94 %12.2 °C5 km/hO10 km/h13.3 1013 hPa-
18/08/2022 02:3213.2 °C93 %12.2 °C6 km/h--13.3 1013 hPa-
18/08/2022 02:2913.3 °C93 %12.2 °C6 km/hOSO10 km/h13.3 1013 hPa-
18/08/2022 02:1813.4 °C92 %12.2 °C10 km/h--12.8 1013 hPa-
18/08/2022 02:1513.4 °C92 %12.2 °C8 km/hO10 km/h12.8 1012 hPa-
18/08/2022 02:0314.0 °C92 %12.8 °C8 km/h--13.3 1013 hPa-
18/08/2022 02:0014.1 °C92 %12.8 °C5 km/hONO10 km/h13.9 1013 hPa-
18/08/2022 01:4814.5 °C90 %12.8 °C5 km/h--14.4 1013 hPa-
18/08/2022 01:4514.6 °C90 %13.3 °C2 km/hNO8 km/h14.4 1013 hPa-
18/08/2022 01:3315.4 °C87 %13.3 °C5 km/h--15.6 1012 hPa-
18/08/2022 01:3015.7 °C88 %13.9 °C5 km/hOSO8 km/h15.6 1012 hPa-
18/08/2022 01:1815.4 °C91 %13.9 °C6 km/h--15.6 1012 hPa-
18/08/2022 01:1515.1 °C91 %13.9 °C5 km/hSO8 km/h15.0 1012 hPa-
18/08/2022 01:0315.2 °C88 %13.3 °C5 km/h--15.0 1012 hPa-
18/08/2022 01:0015.3 °C86 %12.8 °C5 km/hO8 km/h15.6 1012 hPa-
18/08/2022 00:4815.9 °C87 %13.9 °C5 km/h--16.1 1012 hPa-
18/08/2022 00:4516.0 °C87 %13.9 °C5 km/hOSO8 km/h16.1 1012 hPa-
18/08/2022 00:3316.1 °C89 %14.4 °C5 km/h--16.1 1012 hPa-
18/08/2022 00:3016.0 °C90 %14.4 °C5 km/hOSO8 km/h16.1 1012 hPa-
18/08/2022 00:1815.6 °C93 %14.4 °C5 km/h--15.6 1012 hPa-
18/08/2022 00:1515.4 °C94 %14.4 °C5 km/hOSO8 km/h15.6 1012 hPa-
18/08/2022 00:0415.1 °C94 %13.9 °C6 km/h--15.0 1012 hPa-
18/08/2022 00:0015.0 °C94 %13.9 °C8 km/hOSO8 km/h15.0 1012 hPa-


Minima :

Température : 11.3 °C
Humidité : 48 %
Point de rosée : 10.6 °C
Vent moyen : 2 km/h
Windchill : 11.1
Pression atm. : 1012 hPa
Maxima :

Température : 28.7 °C
Humidité : 99 %
Point de rosée : 18.3 °C
Vent moyen : 26 km/h
Windchill : 28.3
Pression atm. : 1016 hPa
Rafales max : 26 km/h
Cumul de pluie sur 24H : 0 mm

Digny est une commune du département Eure-et-Loir (28).
La station météorologique du réseau de l'association la plus proche de Digny est celle de Le Mesnil-Thomas



Icône Facebook Association Météo Centre Icône Twitter Association Météo Centre Icône Chaîne Youtube Association Météo Centre Icône contact Association Météo Centre Icône Insta Association Météo Centre